Hors Challenge

Lampiris Ecotrail - Bruxelles (65.50 km)

samedi 05 septembre 2020

Le Classement original se trouve sur : http://www.chronorace.be        
 
LAMPIRIS ECOTRAIL - BRUXELLES
DISTANCE : 65.59 km
samedi 05 septembre 2020
 
Place Dos NOM Equipe Catégorie Pl/cat temps temps/km Vitesse
1 8067 DENEFFE GUILLAUME TRAKKS SH 1 4:37:43 04:14 14.17
2 8001 MAHIA SEBASTIEN RUN ATTITUDE SH 2 5:06:25 04:40 12.84
3 8070 BOUGHRAD MOHAMED DECATHLON TRAIL V1 1 5:07:42 04:41 12.79
4 8020 VANDENBUSSCHE DENNIS   SH 3 5:23:39 04:56 12.16
5 8127 SENANEUCH REMI UCB CLUB V1 2 5:24:59 04:57 12.11
6 8136 DE FRÉ JASPER   SH 4 5:37:40 05:09 11.65
7 8091 MÉLANGE FRANÇOIS BIO TRAIL SH 5 5:38:00 05:09 11.64
8 8133 VAN HOECK YVES JOGGINGCLUB MOE V1 3 5:39:19 05:10 11.60
9 8146 FABRE FLORIAN   SH 6 5:40:34 05:12 11.55
10 8123 DHONT DIETER   SH 7 5:44:46 05:15 11.41
11 8225 DECKERS OLIVIER   V1 4 5:46:43 05:17 11.35
12 8102 VAN DEN BOSSCHE DAVID   V1 5 5:47:02 05:17 11.34
13 8126 MASNOU GRÉGOIRE   SH 8 5:49:52 05:20 11.25
14 8065 MARCHAND STEPHANE   V1 6 5:52:47 05:23 11.15
15 8105 DE CLERCQ WOUTER   SH 9 5:54:01 05:24 11.12
16 8096 WALRAVENS YVES OLIVIER DMRC V1 7 5:58:59 05:28 10.96
17 8064 LAPALUS DENIS   V2 1 5:59:14 05:29 10.95
18 8090 CRESSY GUILLAUME   SH 10 6:00:29 05:30 10.92
19 8137 PALFI JANOS   V1 8 6:04:36 05:34 10.79
20 8108 PRIGENT YANNICK SPORTIVAMENTE V1 9 6:04:37 05:34 10.79
21 8079 WILLEMART MARCO   SH 11 6:06:44 05:35 10.73
22 8057 BUI THOAI   SH 12 6:16:51 05:45 10.44
23 8054 GRAVELAND WILSE   SH 13 6:17:21 05:45 10.43
24 8088 BENJAMIN BERGIERS SMOKING HOT TRA SH 14 6:17:21 05:45 10.43
25 8010 BUET THOMAS   SH 15 6:17:43 05:46 10.42
26 8062 DU BOIS MICHAËL ACHILLES V2 2 6:18:37 05:46 10.39
27 8101 BAEYENS LORE   SD 1 6:18:43 05:46 10.39
28 8002 AMEYE JEAN-FRANÇOIS   SH 16 6:19:17 05:47 10.38
29 8089 ALBERT MIKA RUN ATTITUDE SH 17 6:24:23 05:52 10.24
30 8078 MORRIS HARRY NONE SH 18 6:25:33 05:53 10.21
31 8027 SIMONET THIBAULT   SH 19 6:25:42 05:53 10.20
32 8007 MAHIEU FRANÇOIS   SH 20 6:26:18 05:53 10.19
33 8068 CULOT LIONEL   V1 10 6:27:15 05:54 10.16
34 8130 LE GRELLE BRUNO   V3 1 6:28:07 05:55 10.14
35 8147 CALLEBAUT ALEX   V2 3 6:30:10 05:57 10.09
36 8110 HACK PAULINA   A1 1 6:30:48 05:58 10.07
37 8111 FORBES ARTHUR CACE V1 11 6:30:48 05:58 10.07
38 8125 HAEGHENS ALAIN-BRICE TRICOTEAM SH 21 6:33:50 06:00 9.99
39 8117 SLEGERS NICOLAS   SH 22 6:34:56 06:01 9.96
40 8031 BOURGEOIS RAPHAËL   V1 12 6:37:16 06:03 9.91
41 8028 HANSEZ BENOÎT URBAN TRI TEAM V1 13 6:37:43 06:04 9.89
42 8084 CASSEZ ALEXANDRE   V1 14 6:40:45 06:07 9.82
43 8121 DEWEZ GEOFFROY COACHING ZONE T V1 15 6:41:30 06:07 9.80
44 8066 BARTOSZUK ROMAN   V1 16 6:44:05 06:10 9.74
45 8097 COETSIERS KAREL   V1 17 6:45:16 06:11 9.71
46 8115 OGER LAURENT   SH 23 6:45:45 06:11 9.70
47 8012 VANDECASTEELE FREDERIK JT OLIFANT V1 18 6:46:22 06:12 9.68
48 8119 SAUVAGE HENRY JE NE SAIS PAS SH 24 6:47:53 06:13 9.65
49 8072 QUADFLIEG MARC MAASLANDSE ATLE V3 2 6:49:09 06:14 9.62
50 8017 HUBRECHT STEF   SH 25 6:49:20 06:14 9.61
51 8106 GRIFFIT FRANCK LIVRY GARGAN AT V1 19 6:49:43 06:15 9.60
52 8009 DECLERCQ STEVEN   V1 20 6:50:46 06:16 9.58
53 8113 SCHMIDT FRANK   V2 4 6:51:50 06:17 9.56
54 8098 HOUBIERS SYLVIE   A1 2 6:54:50 06:19 9.49
55 8026 SOULIER BENOÎT   V1 21 6:56:42 06:21 9.44
56 8109 VINCENT DUIJNHOUWER WEEKEND WARRIOR SH 26 6:57:11 06:22 9.43
57 8008 KINKIN NICOLAS   SH 27 6:58:41 06:23 9.40
58 8135 FIEVET DAMIEN ACP MEAUX V1 22 6:59:12 06:23 9.39
59 8120 CIPRIAN STREJAC   SH 28 6:59:35 06:24 9.38
60 8129 MARIN MANUEL   V1 23 6:59:39 06:24 9.38
61 8060 BLANCHART NICOLAS GLOBETRAILERS SH 29 7:04:19 06:28 9.27
62 8006 GILLET YVES ZATOLEFFE V3 3 7:05:27 06:29 9.25
63 8144 ABRAHAM YANN   V1 24 7:06:01 06:30 9.24
64 8058 VANDERPERREN CÉDRIC   V1 25 7:08:04 06:32 9.19
65 8145 HACKMAN SARAH   SD 2 7:08:17 06:32 9.19
66 8092 VANDER STUKKEN CÉDRIC   SH 30 7:10:26 06:34 9.14
67 8094 VERMOESEN PHILIPPE   V2 5 7:11:05 06:34 9.13
68 8075 CRAEN FRANK   V2 6 7:12:17 06:35 9.10
69 8139 MARSAULT PASCAL   V2 7 7:14:56 06:38 9.05
70 8140 LEFEVRE YOHAN   SH 31 7:14:56 06:38 9.05
71 8112 DEMOULIN STEEVE   V1 26 7:15:24 06:38 9.04
72 8056 VAN CLEEF ASTRID AC BREAK SD 3 7:16:20 06:39 9.02
73 8069 COPPENS FRED   V1 27 7:17:51 06:41 8.99
74 8083 OGER CEDRIC   SH 32 7:17:56 06:41 8.99
75 8016 BOURDOUX THIERRY BERUN SH 33 7:18:41 06:41 8.97
76 8087 DESCHAUWER BRUNO MARATHON ADDICT V1 28 7:20:38 06:43 8.93
77 8124 ROCHETTE BERTRAND CIGARES, CORNIC SH 34 7:22:11 06:45 8.90
78 8116 CARL SIMON   V2 8 7:24:06 06:46 8.86
79 8014 BACQUEVILLE MORGAN NSV TEAM SH 35 7:27:40 06:50 8.79
80 8011 MAUCHARD PHILIPPE   V2 9 7:28:38 06:50 8.77
81 8093 KEPPENS JURGEN MMC V1 29 7:29:14 06:51 8.76
82 8081 TOLBECQ STEPHANE SWIFT RUNNING C V1 30 7:30:18 06:52 8.74
83 8221 REIGELUTH STUART   V1 31 7:33:22 06:55 8.68
84 8032 SULA SELVI   A1 3 7:35:22 06:57 8.64
85 8033 JANSEN LIONELL TAILWIND TRAILB V1 32 7:36:51 06:58 8.61
86 8019 PERROTIN ROMAIN   V1 33 7:37:18 06:58 8.61
87 8029 STANESCU LUCIAN BIKE ATTACK V1 34 7:37:36 06:59 8.60
88 8224 VERLÉ JONAS   SH 36 7:39:42 07:01 8.56
89 8034 LE GOFF VINCENT RESC V1 35 7:41:35 07:02 8.53
90 8074 NORRIS JOSÉPHINE RESC SD 4 7:41:35 07:02 8.53
91 8023 COCQUEREZ BENJAMIN   SH 37 7:43:04 07:04 8.50
92 8134 LACROIX LOGAN BREF JE FAIS DU SH 38 7:43:16 07:04 8.49
93 8131 VERHAEGHE XAVIER   V2 10 7:44:11 07:05 8.48
94 8222 DE SMET MICHAEL   SH 39 7:45:09 07:06 8.46
95 8080 TORELLI GIOVANNI BATTISTA PODISTICA SOLID V3 4 7:45:56 07:06 8.45
96 8103 TYTECA BENOÎT   SH 40 7:48:15 07:08 8.40
97 8015 ASIKAINEN TOMMI   V1 36 7:49:16 07:09 8.39
98 8149 CTK FLO A-TEAM SH 41 7:50:38 07:11 8.36
99 8035 BARRE FRÉDÉRIC LE RUNNER SANS V1 37 7:53:45 07:13 8.31
100 8128 FERGUSON HENRY   V1 38 7:53:51 07:13 8.30
101 8059 RODARO PATRICK MPW-HJM V2 11 7:58:25 07:18 8.23
102 8100 HERPIN MARIE-PAULE   A2 1 8:02:51 07:22 8.15
103 8141 FRANCK ALEXANDRE DMRC V1 39 8:02:55 07:22 8.15
104 8024 MENTEN RENAUD   V2 12 8:07:24 07:26 8.07
105 8114 VAN MALLEGHEM OLIVIER   V2 13 8:07:56 07:26 8.07
106 8095 SONET RENAUD BORN TO RUN V1 40 8:13:01 07:31 7.98
107 8073 MULLER PAUL   V1 41 8:15:35 07:33 7.94
108 8138 ROTONDA STÉPHANE   V1 42 8:17:41 07:35 7.91
109 8107 BERTHE JOCELYN   V2 14 8:21:47 07:39 7.84
110 8013 GIANOLI DIEGO   SH 42 8:25:05 07:42 7.79
111 8021 BARENGHI SIMONE   V1 43 8:35:10 07:51 7.64
112 8086 POP PETRU   V1 44 8:43:14 07:59 7.52
113 8076 DESSAMBRE MARCEL OCAN V4 1 8:43:21 07:59 7.52
114 8132 TRIPOLI MAURIZIO   V1 45 8:43:22 07:59 7.52
115 8085 MIRODATOS CLAUDE LA FOULÉE MUROI V4 2 8:43:22 07:59 7.52
116 8018 KRIJNEN HERMAN   V3 5 8:43:37 07:59 7.52
117 8077 BALDINI GIOVANNI ECOMARATONA DEI V2 15 8:47:46 08:03 7.46
118 8082 ELAAGBANI MOHAMED FACERUNNING V2 16 8:50:01 08:05 7.42
119 8055 VREUGDE DAVE   SH 43 8:52:22 08:07 7.39
120 8025 BLATRIX ROMARIC   V1 46 8:54:06 08:09 7.37
121 8122 LOOMANS DIDIER   V1 47 8:56:28 08:11 7.34
122 8143 GRATEPANCHE FRANÇOIS FAST AND FURIOU V2 17 9:02:27 08:16 7.25
123 8142 BOCQUERY VINCENT FAST AND FURIOU V2 18 9:02:28 08:16 7.25
124 8148 DUMONT PHILIPPE   V2 19 9:03:02 08:17 7.25
125 8004 MONTOISY JULIE RCB GAL SD 5 9:05:03 08:19 7.22
126 8071 DE JAEGHER LAETITIA   A1 4 9:32:02 08:43 6.88